Time;durP1;ratioP1;P1;durP2;ratioP2;P2;SDS_P1;SDS_P2;PMS_P1;PMS_P2;Temp;Humidity;BMP_temperature;BMP_pressure;BME280_temperature;BME280_humidity;BME280_pressure;Samples;Min_cycle;Max_cycle;Signal;HPM_P1;HPM_P2
2022/05/01 00:00:47;;;;;;;7.78;3.65;;;;;15.00;102356.00;;;;5046443;28;20282;-77
2022/05/01 00:03:30;;;;;;;6.68;3.67;;;;;15.00;102352.00;;;;5048744;28;20192;-77
2022/05/01 00:05:59;;;;;;;4.30;3.63;;;;;15.00;102353.00;;;;5040351;28;20261;-77
2022/05/01 00:08:26;;;;;;;5.85;3.42;;;;;14.90;102346.00;;;;5035020;28;20223;-78
2022/05/01 00:10:53;;;;;;;5.97;4.05;;;;;14.90;102353.00;;;;5043047;28;20212;-77
2022/05/01 00:13:21;;;;;;;6.18;4.20;;;;;14.90;102350.00;;;;5038942;28;20196;-77
2022/05/01 00:15:48;;;;;;;4.20;3.70;;;;;14.90;102351.00;;;;5027572;28;20204;-77
2022/05/01 00:18:15;;;;;;;5.15;4.25;;;;;14.90;102348.00;;;;5047943;28;20200;-77
2022/05/01 00:20:43;;;;;;;4.97;4.20;;;;;14.80;102351.00;;;;5036589;28;20231;-78
2022/05/01 00:23:12;;;;;;;5.00;4.13;;;;;14.80;102341.00;;;;5028302;28;20204;-77
2022/05/01 00:25:42;;;;;;;5.28;4.05;;;;;14.80;102334.00;;;;5033736;28;20249;-77
2022/05/01 00:28:10;;;;;;;4.45;3.60;;;;;14.80;102333.00;;;;5046787;28;20223;-77
2022/05/01 00:30:38;;;;;;;4.80;3.63;;;;;14.80;102335.00;;;;5047905;28;20195;-77
2022/05/01 00:38:38;;;;;;;4.70;3.90;;;;;14.60;102328.00;;;;5040208;28;20234;-77
2022/05/01 00:41:07;;;;;;;4.68;3.72;;;;;14.60;102328.00;;;;5047353;28;20231;-77
2022/05/01 00:43:34;;;;;;;4.82;3.88;;;;;14.60;102325.00;;;;5045015;28;20291;-77
2022/05/01 00:46:02;;;;;;;4.00;3.58;;;;;14.60;102334.00;;;;5030355;28;20200;-77
2022/05/01 00:48:29;;;;;;;5.72;3.97;;;;;14.50;102333.00;;;;5036016;28;20594;-77
2022/05/01 00:50:56;;;;;;;4.90;3.95;;;;;14.50;102329.00;;;;5028638;28;20659;-77
2022/05/01 00:53:24;;;;;;;5.78;4.05;;;;;14.40;102334.00;;;;5035160;28;20200;-77
2022/05/01 00:55:52;;;;;;;6.28;3.70;;;;;14.40;102329.00;;;;5050478;28;20208;-77
2022/05/01 00:58:20;;;;;;;3.95;3.55;;;;;14.30;102335.00;;;;5049488;28;20196;-77
2022/05/01 01:00:47;;;;;;;4.68;3.20;;;;;14.30;102337.00;;;;5043806;28;20200;-77
2022/05/01 01:03:15;;;;;;;4.95;3.47;;;;;14.30;102332.00;;;;5036726;28;20203;-77
2022/05/01 01:05:42;;;;;;;5.70;3.92;;;;;14.30;102328.00;;;;5031671;28;20250;-77
2022/05/01 01:08:12;;;;;;;4.78;4.10;;;;;14.20;102325.00;;;;5038073;28;20750;-77
2022/05/01 01:10:39;;;;;;;4.35;3.58;;;;;14.20;102327.00;;;;5030878;28;20204;-77
2022/05/01 01:13:08;;;;;;;3.83;3.40;;;;;14.10;102331.00;;;;5048404;28;20200;-77
2022/05/01 01:15:36;;;;;;;4.25;3.63;;;;;14.10;102326.00;;;;5046449;28;20677;-77
2022/05/01 01:18:03;;;;;;;4.65;3.75;;;;;14.10;102331.00;;;;5038251;28;21282;-77
2022/05/01 01:20:32;;;;;;;3.72;3.30;;;;;14.00;102324.00;;;;5035549;28;20203;-77
2022/05/01 01:23:01;;;;;;;3.85;3.33;;;;;14.00;102327.00;;;;5032947;28;20200;-77
2022/05/01 01:25:32;;;;;;;4.72;3.35;;;;;13.90;102325.00;;;;5035223;28;20266;-77
2022/05/01 01:28:02;;;;;;;9.30;3.55;;;;;13.90;102321.00;;;;5049844;28;20253;-77
2022/05/01 01:33:17;;;;;;;5.68;4.00;;;;;13.80;102325.00;;;;5046960;28;20646;-77
2022/05/01 01:35:48;;;;;;;4.30;3.60;;;;;13.80;102318.00;;;;5044093;28;20200;-77
2022/05/01 01:38:16;;;;;;;4.25;3.67;;;;;13.70;102321.00;;;;5049559;28;20601;-77
2022/05/01 01:40:47;;;;;;;4.65;4.10;;;;;13.70;102323.00;;;;5032068;28;20335;-77
2022/05/01 01:43:18;;;;;;;6.63;4.80;;;;;13.70;102324.00;;;;5030915;28;20258;-77
2022/05/01 01:45:46;;;;;;;5.10;3.90;;;;;13.60;102324.00;;;;5029937;28;20207;-77
2022/05/01 01:48:15;;;;;;;4.28;3.80;;;;;13.60;102314.00;;;;5030039;28;20200;-77
2022/05/01 01:50:44;;;;;;;5.68;3.67;;;;;13.50;102319.00;;;;5045809;28;20195;-77
2022/05/01 01:53:12;;;;;;;5.13;3.75;;;;;13.50;102311.00;;;;5046925;28;20235;-77
2022/05/01 01:55:41;;;;;;;4.90;3.58;;;;;13.40;102316.00;;;;5046436;28;20214;-77
2022/05/01 01:58:09;;;;;;;4.80;4.15;;;;;13.40;102311.00;;;;5049785;28;20269;-77
2022/05/01 02:00:36;;;;;;;5.22;3.70;;;;;13.40;102313.00;;;;5044122;28;20196;-77
2022/05/01 02:03:05;;;;;;;5.30;3.97;;;;;13.30;102312.00;;;;5046870;28;20195;-77
2022/05/01 02:05:33;;;;;;;4.28;3.70;;;;;13.30;102315.00;;;;5035280;28;20211;-77
2022/05/01 02:08:01;;;;;;;6.68;4.57;;;;;13.20;102311.00;;;;5030017;28;20923;-77
2022/05/01 02:10:29;;;;;;;5.35;3.80;;;;;13.10;102308.00;;;;5047867;28;20233;-77
2022/05/01 02:12:59;;;;;;;5.97;4.00;;;;;13.10;102314.00;;;;5049104;28;20196;-77
2022/05/01 02:15:30;;;;;;;5.40;4.53;;;;;13.10;102315.00;;;;5049472;28;20207;-77
2022/05/01 02:17:58;;;;;;;5.70;4.30;;;;;13.00;102308.00;;;;5048012;28;20585;-76
2022/05/01 02:20:26;;;;;;;5.85;4.75;;;;;12.90;102303.00;;;;5036837;28;20292;-77
2022/05/01 02:22:54;;;;;;;5.22;4.13;;;;;12.90;102301.00;;;;5042660;28;20204;-77
2022/05/01 02:25:22;;;;;;;6.88;4.38;;;;;12.90;102302.00;;;;5048954;28;20262;-77
2022/05/01 02:27:49;;;;;;;6.30;4.75;;;;;12.80;102301.00;;;;5048417;28;20195;-77
2022/05/01 02:30:18;;;;;;;5.90;3.75;;;;;12.80;102299.00;;;;5038725;28;20319;-77
2022/05/01 02:32:45;;;;;;;6.20;4.03;;;;;12.70;102301.00;;;;5040465;28;20871;-77
2022/05/01 02:35:12;;;;;;;5.55;4.00;;;;;12.70;102294.00;;;;5049100;28;20946;-77
2022/05/01 02:37:40;;;;;;;6.00;4.30;;;;;12.60;102301.00;;;;5040904;28;20232;-77
2022/05/01 02:40:08;;;;;;;5.78;4.85;;;;;12.60;102294.00;;;;5039658;28;20224;-77
2022/05/01 02:42:35;;;;;;;5.70;4.60;;;;;12.50;102300.00;;;;5036180;28;20211;-76
2022/05/01 02:45:03;;;;;;;5.10;4.07;;;;;12.50;102292.00;;;;5036757;28;20250;-77
2022/05/01 02:47:32;;;;;;;5.55;4.45;;;;;12.40;102293.00;;;;5045751;28;20204;-78
2022/05/01 02:50:00;;;;;;;7.45;4.60;;;;;12.40;102290.00;;;;5038168;28;20246;-77
2022/05/01 02:52:27;;;;;;;4.85;4.22;;;;;12.40;102279.00;;;;5040005;28;20559;-77
2022/05/01 02:54:54;;;;;;;6.28;4.95;;;;;12.30;102281.00;;;;5036556;28;20257;-77
2022/05/01 02:57:22;;;;;;;4.90;4.00;;;;;12.30;102284.00;;;;5043077;28;20655;-77
2022/05/01 02:59:49;;;;;;;6.10;4.72;;;;;12.20;102282.00;;;;5046009;28;20199;-77
2022/05/01 03:02:16;;;;;;;5.32;4.35;;;;;12.20;102281.00;;;;5037895;28;20204;-76
2022/05/01 03:04:46;;;;;;;6.18;4.80;;;;;12.10;102284.00;;;;5035479;28;20555;-76
2022/05/01 03:07:15;;;;;;;5.93;4.15;;;;;12.10;102280.00;;;;5047930;28;20402;-76
2022/05/01 03:09:43;;;;;;;6.07;4.57;;;;;12.00;102276.00;;;;5029393;28;20239;-77
2022/05/01 03:12:10;;;;;;;5.57;4.47;;;;;12.00;102271.00;;;;5037328;28;20200;-76
2022/05/01 03:14:38;;;;;;;6.40;4.03;;;;;12.00;102272.00;;;;5029087;28;20199;-77
2022/05/01 03:17:05;;;;;;;6.68;5.00;;;;;11.90;102273.00;;;;5033232;28;20538;-77
2022/05/01 03:22:21;;;;;;;5.85;4.60;;;;;11.80;102272.00;;;;5037678;28;20207;-76
2022/05/01 03:24:48;;;;;;;6.57;5.18;;;;;11.80;102266.00;;;;5047461;28;20199;-77
2022/05/01 03:27:16;;;;;;;6.43;4.57;;;;;11.70;102263.00;;;;5046747;28;20202;-76
2022/05/01 03:30:15;;;;;;;5.68;4.80;;;;;11.70;102263.00;;;;5030188;28;21290;-77
2022/05/01 03:32:31;;;;;;;5.45;4.63;;;;;11.70;102266.00;;;;5038321;28;20548;-77
2022/05/01 03:34:59;;;;;;;5.03;3.90;;;;;11.60;102260.00;;;;5033033;28;20204;-77
2022/05/01 03:37:29;;;;;;;4.63;3.92;;;;;11.60;102262.00;;;;5028298;28;20232;-77
2022/05/01 03:39:56;;;;;;;4.82;4.20;;;;;11.60;102267.00;;;;5028611;28;20270;-77
2022/05/01 03:42:23;;;;;;;5.30;4.13;;;;;11.50;102261.00;;;;5028056;28;20204;-76
2022/05/01 03:44:51;;;;;;;6.68;4.50;;;;;11.50;102265.00;;;;5028619;28;20200;-76
2022/05/01 03:47:18;;;;;;;6.68;5.03;;;;;11.40;102255.00;;;;5030796;28;20582;-76
2022/05/01 03:49:45;;;;;;;6.57;4.63;;;;;11.40;102264.00;;;;5028356;28;20220;-77
2022/05/01 03:52:12;;;;;;;6.25;4.72;;;;;11.40;102259.00;;;;5045104;28;20603;-77
2022/05/01 03:54:41;;;;;;;6.60;4.45;;;;;11.30;102264.00;;;;5042306;28;20204;-77
2022/05/01 03:57:09;;;;;;;5.93;4.82;;;;;11.30;102260.00;;;;5028279;28;20204;-76
2022/05/01 03:59:36;;;;;;;4.97;4.20;;;;;11.30;102265.00;;;;5029645;28;20634;-77
2022/05/01 04:02:04;;;;;;;8.48;4.85;;;;;11.30;102262.00;;;;5047924;28;20195;-76
2022/05/01 04:04:35;;;;;;;6.13;4.40;;;;;11.20;102259.00;;;;5046812;28;20278;-76
2022/05/01 04:07:03;;;;;;;6.05;3.70;;;;;11.20;102258.00;;;;5039869;28;20236;-76
2022/05/01 04:09:30;;;;;;;6.18;4.75;;;;;11.10;102249.00;;;;5039579;28;20232;-77
2022/05/01 04:11:58;;;;;;;6.15;4.57;;;;;11.10;102256.00;;;;5029219;28;20188;-76
2022/05/01 04:14:26;;;;;;;7.35;4.35;;;;;11.10;102246.00;;;;5033711;28;20187;-77
2022/05/01 04:16:54;;;;;;;5.53;4.07;;;;;11.10;102252.00;;;;5039363;28;20716;-76
2022/05/01 04:19:22;;;;;;;6.40;5.20;;;;;11.10;102257.00;;;;5028817;28;20208;-76
2022/05/01 04:21:49;;;;;;;7.03;4.72;;;;;11.00;102252.00;;;;5037335;28;20200;-78
2022/05/01 04:24:16;;;;;;;6.45;4.00;;;;;11.00;102257.00;;;;5047072;28;20192;-76
2022/05/01 04:26:43;;;;;;;4.95;4.18;;;;;11.00;102255.00;;;;5050367;28;20199;-76
2022/05/01 04:31:57;;;;;;;6.65;4.63;;;;;10.90;102261.00;;;;5042435;28;20207;-75
2022/05/01 04:34:24;;;;;;;6.25;4.53;;;;;10.90;102263.00;;;;5043374;28;20821;-76
2022/05/01 04:36:51;;;;;;;8.00;5.35;;;;;10.90;102261.00;;;;5051317;28;20578;-76
2022/05/01 04:39:19;;;;;;;7.32;5.53;;;;;10.90;102259.00;;;;5051801;28;20232;-76
2022/05/01 04:41:46;;;;;;;6.90;5.13;;;;;10.90;102260.00;;;;5047902;28;20223;-75
2022/05/01 04:44:15;;;;;;;5.90;4.65;;;;;10.90;102259.00;;;;5051898;28;21105;-76
2022/05/01 04:46:43;;;;;;;6.70;5.15;;;;;10.90;102257.00;;;;5051299;28;20203;-76
2022/05/01 04:49:12;;;;;;;6.95;4.78;;;;;10.90;102257.00;;;;5048772;28;20196;-75
2022/05/01 04:51:39;;;;;;;6.18;4.53;;;;;10.90;102262.00;;;;5047913;28;20239;-76
2022/05/01 04:54:07;;;;;;;7.47;5.22;;;;;10.90;102266.00;;;;5050130;28;20200;-76
2022/05/01 04:59:20;;;;;;;5.75;4.35;;;;;10.90;102266.00;;;;5050224;28;20234;-77
2022/05/01 05:01:47;;;;;;;6.85;5.40;;;;;11.00;102264.00;;;;5036911;28;20641;-77
2022/05/01 05:04:14;;;;;;;7.90;4.82;;;;;11.00;102269.00;;;;5047397;28;20249;-77
2022/05/01 05:06:42;;;;;;;6.22;5.18;;;;;11.00;102267.00;;;;5050452;28;20266;-77
2022/05/01 05:11:54;;;;;;;5.40;4.43;;;;;11.10;102271.00;;;;5043101;28;20206;-77
2022/05/01 05:14:23;;;;;;;6.05;4.85;;;;;11.20;102281.00;;;;5039184;28;20201;-77
2022/05/01 05:16:51;;;;;;;6.57;5.32;;;;;11.20;102277.00;;;;5045849;28;20630;-77
2022/05/01 05:19:18;;;;;;;6.75;5.05;;;;;11.30;102282.00;;;;5051608;28;20188;-77
2022/05/01 05:21:45;;;;;;;6.63;4.70;;;;;11.30;102281.00;;;;5046618;28;21833;-77
2022/05/01 05:24:13;;;;;;;7.10;4.90;;;;;11.40;102277.00;;;;5031595;28;20196;-77
2022/05/01 05:26:40;;;;;;;5.38;4.20;;;;;11.50;102285.00;;;;5041255;28;20200;-76
2022/05/01 05:29:08;;;;;;;6.10;4.90;;;;;11.60;102289.00;;;;5041228;28;20666;-76
2022/05/01 05:31:37;;;;;;;5.10;4.57;;;;;11.60;102292.00;;;;5046292;28;20195;-76
2022/05/01 05:34:05;;;;;;;5.93;4.70;;;;;11.80;102291.00;;;;5049453;28;20235;-77
2022/05/01 05:36:32;;;;;;;5.97;5.10;;;;;11.80;102299.00;;;;5049300;28;20199;-76
2022/05/01 05:39:01;;;;;;;6.80;5.15;;;;;12.00;102303.00;;;;5041605;28;20237;-75
2022/05/01 05:41:29;;;;;;;6.07;4.78;;;;;12.00;102296.00;;;;5051203;28;20274;-76
2022/05/01 05:43:56;;;;;;;7.07;5.20;;;;;12.20;102306.00;;;;5051646;28;20208;-76
2022/05/01 05:46:24;;;;;;;6.32;4.95;;;;;12.20;102301.00;;;;5037236;28;20250;-76
2022/05/01 05:48:53;;;;;;;7.47;5.13;;;;;12.40;102305.00;;;;5052130;28;20577;-76
2022/05/01 05:51:20;;;;;;;5.35;4.70;;;;;12.50;102304.00;;;;5047319;28;20207;-76
2022/05/01 05:53:49;;;;;;;7.32;5.38;;;;;12.60;102305.00;;;;5035142;28;20211;-77
2022/05/01 05:56:17;;;;;;;8.60;5.72;;;;;12.70;102307.00;;;;5043680;28;20553;-77
2022/05/01 05:58:44;;;;;;;5.80;4.60;;;;;12.90;102312.00;;;;5050828;28;20195;-76
2022/05/01 06:01:12;;;;;;;5.50;4.65;;;;;13.00;102312.00;;;;5047998;28;20215;-76
2022/05/01 06:03:39;;;;;;;7.45;5.22;;;;;13.10;102320.00;;;;5052651;28;20202;-77
2022/05/01 06:06:08;;;;;;;6.70;5.20;;;;;13.20;102317.00;;;;5051377;28;20251;-77
2022/05/01 06:08:37;;;;;;;9.38;5.45;;;;;13.40;102320.00;;;;5051263;28;20203;-77
2022/05/01 06:11:05;;;;;;;6.43;5.07;;;;;13.50;102320.00;;;;5039827;28;20207;-77
2022/05/01 06:13:32;;;;;;;6.68;5.05;;;;;13.60;102330.00;;;;5049726;28;20730;-77
2022/05/01 06:16:07;;;;;;;6.20;5.07;;;;;13.80;102328.00;;;;5050372;28;20673;-77
2022/05/01 06:18:34;;;;;;;8.52;5.10;;;;;13.90;102332.00;;;;5051054;28;20669;-75
2022/05/01 06:21:06;;;;;;;5.10;4.53;;;;;14.10;102331.00;;;;5046132;28;20647;-77
2022/05/01 06:23:35;;;;;;;6.30;4.57;;;;;14.20;102333.00;;;;5050907;28;20590;-77
2022/05/01 06:26:04;;;;;;;6.05;4.88;;;;;14.30;102328.00;;;;5051995;28;21073;-76
2022/05/01 06:28:34;;;;;;;6.55;5.03;;;;;14.40;102328.00;;;;5051968;28;20207;-77
2022/05/01 06:31:05;;;;;;;5.25;4.55;;;;;14.60;102328.00;;;;5050405;28;20199;-76
2022/05/01 06:33:36;;;;;;;6.55;4.88;;;;;14.60;102323.00;;;;5044961;28;20196;-76
2022/05/01 06:36:04;;;;;;;7.30;5.63;;;;;14.80;102327.00;;;;5039998;28;20200;-77
2022/05/01 06:38:33;;;;;;;6.15;4.78;;;;;14.90;102327.00;;;;5044796;28;20228;-77
2022/05/01 06:41:03;;;;;;;6.22;4.43;;;;;15.00;102329.00;;;;5042749;28;20702;-76
2022/05/01 06:43:31;;;;;;;6.93;4.93;;;;;15.10;102332.00;;;;5048207;28;20207;-77
2022/05/01 06:46:01;;;;;;;5.70;4.93;;;;;15.20;102337.00;;;;5050372;28;20211;-77
2022/05/01 06:48:29;;;;;;;6.05;4.57;;;;;15.40;102328.00;;;;5033949;28;20206;-77
2022/05/01 06:50:57;;;;;;;8.48;4.88;;;;;15.50;102333.00;;;;5046718;28;20203;-78
2022/05/01 06:53:24;;;;;;;5.32;4.05;;;;;15.70;102329.00;;;;5044986;28;20282;-76
2022/05/01 06:55:56;;;;;;;6.80;5.20;;;;;15.80;102329.00;;;;5050068;28;20677;-76
2022/05/01 06:58:26;;;;;;;6.43;4.63;;;;;15.90;102326.00;;;;5044514;28;20192;-76
2022/05/01 07:00:54;;;;;;;5.75;4.60;;;;;16.10;102329.00;;;;5040729;28;20728;-77
2022/05/01 07:03:22;;;;;;;5.65;4.70;;;;;16.20;102329.00;;;;5045074;28;20200;-75
2022/05/01 07:05:49;;;;;;;5.93;4.50;;;;;16.30;102324.00;;;;5047263;28;20206;-75
2022/05/01 07:08:17;;;;;;;5.78;4.13;;;;;16.50;102330.00;;;;5048997;28;20231;-75
2022/05/01 07:10:44;;;;;;;5.30;4.75;;;;;16.60;102331.00;;;;5041716;28;20214;-76
2022/05/01 07:13:13;;;;;;;7.07;4.57;;;;;16.70;102329.00;;;;5036253;28;20227;-77
2022/05/01 07:15:40;;;;;;;5.72;4.47;;;;;16.80;102329.00;;;;5045480;28;20207;-78
2022/05/01 07:18:08;;;;;;;4.88;4.07;;;;;16.90;102325.00;;;;5048269;28;20203;-78
2022/05/01 07:20:35;;;;;;;5.38;3.95;;;;;17.00;102323.00;;;;5041278;28;20296;-76
2022/05/01 07:23:06;;;;;;;4.75;4.13;;;;;17.10;102335.00;;;;5047730;28;20323;-77
2022/05/01 07:25:33;;;;;;;6.97;4.28;;;;;17.20;102327.00;;;;5047686;28;20670;-76
2022/05/01 07:28:01;;;;;;;5.20;3.95;;;;;17.30;102323.00;;;;5047364;28;20211;-76
2022/05/01 07:30:32;;;;;;;5.88;4.30;;;;;17.40;102332.00;;;;5033895;28;21157;-75
2022/05/01 07:32:59;;;;;;;6.10;3.53;;;;;17.50;102326.00;;;;5039085;28;20200;-78
2022/05/01 07:35:29;;;;;;;5.55;3.72;;;;;17.60;102329.00;;;;5043881;28;20195;-77
2022/05/01 07:37:58;;;;;;;4.85;3.70;;;;;17.70;102331.00;;;;5046837;28;20607;-76
2022/05/01 07:40:25;;;;;;;4.38;3.45;;;;;17.80;102331.00;;;;5046914;28;20255;-76
2022/05/01 07:42:53;;;;;;;4.65;3.63;;;;;17.90;102332.00;;;;5039472;28;20208;-75
2022/05/01 07:45:21;;;;;;;4.20;3.70;;;;;18.00;102328.00;;;;5039119;28;20188;-76
2022/05/01 07:47:49;;;;;;;4.13;3.50;;;;;18.10;102326.00;;;;5039077;28;20204;-76
2022/05/01 07:50:17;;;;;;;7.35;4.22;;;;;18.20;102329.00;;;;5046859;28;20578;-76
2022/05/01 07:52:44;;;;;;;5.88;4.03;;;;;18.40;102330.00;;;;5041240;28;20204;-76
2022/05/01 07:55:12;;;;;;;5.50;3.90;;;;;18.50;102324.00;;;;5037624;28;20257;-76
2022/05/01 07:57:39;;;;;;;5.00;3.42;;;;;18.60;102323.00;;;;5032739;28;20200;-77
2022/05/01 08:00:08;;;;;;;6.30;3.80;;;;;18.80;102326.00;;;;5042218;28;20295;-77
2022/05/01 08:04:27;;;;;;;4.88;3.78;;;;;18.90;102320.00;;;;5041958;28;20208;-77
2022/05/01 08:05:24;;;;;;;4.68;3.50;;;;;19.00;102327.00;;;;5038712;28;20282;-76
2022/05/01 08:07:52;;;;;;;5.22;3.85;;;;;19.10;102328.00;;;;5039857;28;20210;-76
2022/05/01 08:10:20;;;;;;;5.60;3.70;;;;;19.20;102326.00;;;;5041226;28;20777;-76
2022/05/01 08:12:48;;;;;;;7.45;4.90;;;;;19.30;102321.00;;;;5045905;28;20226;-75
2022/05/01 08:15:18;;;;;;;4.50;3.63;;;;;19.30;102317.00;;;;5044779;28;20621;-76
2022/05/01 08:17:45;;;;;;;4.25;3.85;;;;;19.40;102317.00;;;;5047844;28;20314;-78
2022/05/01 08:23:05;;;;;;;4.70;3.30;;;;;19.50;102320.00;;;;5035760;28;20207;-77
2022/05/01 08:25:32;;;;;;;3.88;3.47;;;;;19.50;102321.00;;;;5042079;28;20577;-78
2022/05/01 08:28:00;;;;;;;3.67;3.22;;;;;19.60;102312.00;;;;5044843;28;20227;-76
2022/05/01 08:30:27;;;;;;;4.53;2.80;;;;;19.60;102322.00;;;;5042223;28;20203;-77
2022/05/01 08:32:55;;;;;;;4.32;3.30;;;;;19.70;102320.00;;;;5040620;28;20203;-76
2022/05/01 08:35:22;;;;;;;4.80;3.03;;;;;19.70;102314.00;;;;5024537;28;20208;-76
2022/05/01 08:37:49;;;;;;;3.83;2.95;;;;;19.70;102320.00;;;;5032560;28;20231;-77
2022/05/01 08:40:18;;;;;;;4.15;2.65;;;;;19.80;102316.00;;;;5039236;28;20239;-77
2022/05/01 08:42:49;;;;;;;5.85;3.22;;;;;19.80;102320.00;;;;5052047;28;20207;-77
2022/05/01 08:45:17;;;;;;;3.80;2.83;;;;;19.80;102313.00;;;;5034511;28;20196;-77
2022/05/01 08:47:49;;;;;;;3.53;2.90;;;;;19.80;102316.00;;;;5029191;28;20963;-75
2022/05/01 08:50:18;;;;;;;4.40;3.10;;;;;19.90;102315.00;;;;5036224;28;20208;-75
2022/05/01 08:52:46;;;;;;;4.00;3.10;;;;;19.90;102314.00;;;;5042820;28;20292;-76
2022/05/01 08:55:14;;;;;;;3.58;3.28;;;;;19.90;102308.00;;;;5048079;28;20199;-77
2022/05/01 08:57:43;;;;;;;5.20;3.28;;;;;20.00;102313.00;;;;5043923;28;20628;-76
2022/05/01 09:00:11;;;;;;;5.22;2.88;;;;;20.00;102314.00;;;;5036402;28;20208;-77
2022/05/01 09:02:39;;;;;;;4.15;3.17;;;;;20.10;102312.00;;;;5029289;28;20605;-77
2022/05/01 09:05:07;;;;;;;3.70;2.67;;;;;20.20;102306.00;;;;5039373;28;21649;-76
2022/05/01 09:07:35;;;;;;;4.22;2.88;;;;;20.30;102311.00;;;;5035145;28;20208;-76
2022/05/01 09:10:02;;;;;;;4.35;3.10;;;;;20.40;102312.00;;;;5038674;28;20337;-78
2022/05/01 09:15:26;;;;;;;6.13;2.92;;;;;20.50;102315.00;;;;5047021;28;20196;-78
2022/05/01 09:18:02;;;;;;;4.78;2.92;;;;;20.60;102315.00;;;;5041011;28;20588;-77
2022/05/01 09:20:29;;;;;;;3.88;2.78;;;;;20.70;102312.00;;;;5032613;28;20196;-77
2022/05/01 09:22:58;;;;;;;3.78;2.83;;;;;20.80;102311.00;;;;5038337;28;20203;-77
2022/05/01 09:25:29;;;;;;;3.40;2.20;;;;;20.90;102310.00;;;;5051651;28;20219;-78
2022/05/01 09:27:59;;;;;;;3.17;2.28;;;;;21.00;102310.00;;;;5042357;28;22200;-77
2022/05/01 09:30:33;;;;;;;4.07;2.53;;;;;21.00;102320.00;;;;5049287;28;20215;-76
2022/05/01 09:33:02;;;;;;;2.58;2.35;;;;;21.10;102325.00;;;;5051166;28;20206;-77
2022/05/01 09:35:31;;;;;;;5.32;2.90;;;;;21.10;102316.00;;;;5039556;28;20210;-76
2022/05/01 09:38:14;;;;;;;2.72;2.42;;;;;21.10;102324.00;;;;5038912;28;20304;-76
2022/05/01 09:40:41;;;;;;;3.10;2.50;;;;;21.20;102315.00;;;;5030866;28;20224;-76
2022/05/01 09:43:09;;;;;;;5.70;2.33;;;;;21.30;102314.00;;;;5033019;28;20212;-76
2022/05/01 09:45:37;;;;;;;4.75;2.80;;;;;21.40;102317.00;;;;5035760;28;20211;-76
2022/05/01 09:48:21;;;;;;;3.45;2.75;;;;;21.30;102310.00;;;;5045839;28;20202;-75
2022/05/01 09:50:48;;;;;;;2.72;2.45;;;;;21.50;102317.00;;;;5048670;28;20286;-76
2022/05/01 09:53:16;;;;;;;2.42;2.20;;;;;21.50;102315.00;;;;5033966;28;20200;-76
2022/05/01 09:55:43;;;;;;;3.30;2.58;;;;;21.60;102320.00;;;;5047975;28;20199;-76
2022/05/01 09:58:14;;;;;;;3.67;2.80;;;;;21.70;102317.00;;;;5049205;28;20214;-76
2022/05/01 10:00:45;;;;;;;3.50;2.60;;;;;21.80;102316.00;;;;5046612;28;20206;-76
2022/05/01 10:03:26;;;;;;;5.97;3.75;;;;;21.80;102314.00;;;;5050488;28;20203;-76
2022/05/01 10:05:54;;;;;;;4.80;2.58;;;;;21.90;102312.00;;;;5050924;28;20203;-76
2022/05/01 10:08:23;;;;;;;4.35;2.17;;;;;21.90;102304.00;;;;5038676;28;20682;-76
2022/05/01 10:10:53;;;;;;;3.83;2.67;;;;;22.00;102305.00;;;;5030533;28;20204;-76
2022/05/01 10:13:22;;;;;;;3.90;2.30;;;;;22.00;102305.00;;;;5030102;28;20716;-76
2022/05/01 10:15:52;;;;;;;4.85;2.67;;;;;22.00;102301.00;;;;5032386;28;20211;-76
2022/05/01 10:18:21;;;;;;;2.65;2.13;;;;;22.10;102301.00;;;;5048962;28;20258;-76
2022/05/01 10:20:49;;;;;;;4.30;2.38;;;;;22.10;102306.00;;;;5050007;28;20199;-76
2022/05/01 10:23:17;;;;;;;2.15;1.95;;;;;22.10;102301.00;;;;5042078;28;20193;-77
2022/05/01 10:25:51;;;;;;;2.50;1.73;;;;;22.10;102294.00;;;;5046745;28;20226;-76
2022/05/01 10:28:42;;;;;;;2.42;1.60;;;;;22.20;102295.00;;;;5045961;28;20287;-76
2022/05/01 10:34:20;;;;;;;1.58;1.48;;;;;22.40;102287.00;;;;5046499;28;20219;-76
2022/05/01 10:36:59;;;;;;;2.80;2.20;;;;;22.40;102287.00;;;;5037365;28;20607;-77
2022/05/01 10:39:34;;;;;;;2.33;2.10;;;;;22.50;102288.00;;;;5040102;28;20709;-77
2022/05/01 10:42:02;;;;;;;3.15;2.10;;;;;22.60;102290.00;;;;5049082;28;20230;-77
2022/05/01 10:44:33;;;;;;;5.05;2.00;;;;;22.70;102296.00;;;;5038485;28;20199;-77
2022/05/01 10:47:13;;;;;;;2.58;2.13;;;;;22.70;102290.00;;;;5042882;28;20665;-76
2022/05/01 10:49:45;;;;;;;2.90;1.88;;;;;22.80;102281.00;;;;5046531;28;20298;-76
2022/05/01 10:52:18;;;;;;;3.75;2.30;;;;;22.90;102279.00;;;;5048480;28;20198;-76
2022/05/01 10:54:54;;;;;;;5.15;3.00;;;;;22.90;102271.00;;;;5044706;28;20204;-76
2022/05/01 10:57:23;;;;;;;2.53;2.17;;;;;23.10;102267.00;;;;5048640;28;20286;-76
2022/05/01 11:00:05;;;;;;;2.75;2.17;;;;;23.00;102265.00;;;;5044756;28;20211;-76
2022/05/01 11:02:41;;;;;;;2.58;2.20;;;;;23.00;102271.00;;;;5046470;28;20391;-76
2022/05/01 11:05:11;;;;;;;2.78;1.90;;;;;23.10;102270.00;;;;5039224;28;20242;-77
2022/05/01 11:07:39;;;;;;;2.75;2.25;;;;;23.20;102257.00;;;;5037045;28;20197;-76
2022/05/01 11:10:10;;;;;;;3.10;2.13;;;;;23.20;102260.00;;;;5031398;28;20200;-76
2022/05/01 11:12:38;;;;;;;3.33;2.35;;;;;23.20;102264.00;;;;5037647;28;20200;-75
2022/05/01 11:15:08;;;;;;;2.30;2.10;;;;;23.20;102256.00;;;;5047674;28;20265;-76
2022/05/01 11:17:55;;;;;;;2.42;1.95;;;;;23.10;102254.00;;;;5049689;28;20196;-76
2022/05/01 11:20:29;;;;;;;2.13;1.88;;;;;23.30;102255.00;;;;5049153;28;20206;-76
2022/05/01 11:22:56;;;;;;;2.58;2.00;;;;;23.30;102258.00;;;;5048109;28;20230;-76
2022/05/01 11:25:32;;;;;;;2.40;2.00;;;;;23.30;102255.00;;;;5048356;28;20203;-76
2022/05/01 11:27:59;;;;;;;2.85;1.98;;;;;23.40;102249.00;;;;5048243;28;20293;-77
2022/05/01 11:30:35;;;;;;;2.85;2.20;;;;;23.40;102243.00;;;;5040048;28;20689;-76
2022/05/01 11:33:06;;;;;;;2.05;1.75;;;;;23.40;102244.00;;;;5044641;28;20285;-76
2022/05/01 11:35:52;;;;;;;3.38;2.40;;;;;23.30;102244.00;;;;5030647;28;20200;-76
2022/05/01 11:38:21;;;;;;;2.95;2.05;;;;;23.30;102243.00;;;;5045801;28;20254;-75
2022/05/01 11:40:55;;;;;;;3.88;2.38;;;;;23.20;102242.00;;;;5043493;28;20304;-76
2022/05/01 11:43:23;;;;;;;2.75;2.08;;;;;23.20;102239.00;;;;5038844;28;21113;-77
2022/05/01 11:45:51;;;;;;;2.20;2.00;;;;;23.20;102239.00;;;;5038846;28;20250;-76
2022/05/01 11:48:20;;;;;;;4.70;2.30;;;;;23.20;102235.00;;;;5047722;28;20214;-77
2022/05/01 11:50:50;;;;;;;2.30;1.90;;;;;23.20;102236.00;;;;5034089;28;20629;-76
2022/05/01 11:53:23;;;;;;;2.95;2.50;;;;;23.20;102234.00;;;;5028894;28;20215;-76
2022/05/01 12:04:29;;;;;;;2.95;2.17;;;;;23.10;102218.00;;;;5033069;28;20227;-77
2022/05/01 12:07:01;;;;;;;2.60;2.03;;;;;23.20;102214.00;;;;5041770;28;20756;-77
2022/05/01 12:09:30;;;;;;;2.17;1.98;;;;;23.30;102211.00;;;;5039796;28;20423;-75
2022/05/01 12:11:58;;;;;;;2.65;2.33;;;;;23.40;102208.00;;;;5048100;28;20200;-75
2022/05/01 12:14:25;;;;;;;4.55;2.83;;;;;23.50;102208.00;;;;5048115;28;20200;-75
2022/05/01 12:16:53;;;;;;;3.72;2.88;;;;;23.60;102204.00;;;;5041158;28;20203;-75
2022/05/01 12:19:21;;;;;;;2.95;2.53;;;;;23.80;102212.00;;;;5032754;28;20207;-75
2022/05/01 12:21:59;;;;;;;2.80;2.50;;;;;23.80;102205.00;;;;5028329;28;21052;-75
2022/05/01 12:24:27;;;;;;;2.50;2.28;;;;;23.80;102210.00;;;;5032404;28;20223;-75
2022/05/01 12:26:55;;;;;;;4.15;2.40;;;;;23.80;102201.00;;;;5028533;28;20287;-75
2022/05/01 12:29:23;;;;;;;4.82;2.78;;;;;23.90;102192.00;;;;5037335;28;20200;-75
2022/05/01 12:32:11;;;;;;;2.90;2.30;;;;;23.80;102197.00;;;;5039279;28;20211;-74
2022/05/01 12:34:43;;;;;;;2.63;2.10;;;;;24.00;102195.00;;;;5043798;28;20225;-75
2022/05/01 12:37:16;;;;;;;2.42;2.22;;;;;24.00;102195.00;;;;5041732;28;20751;-75
2022/05/01 12:39:44;;;;;;;3.53;2.70;;;;;24.10;102190.00;;;;5009891;28;20205;-75
2022/05/01 12:45:22;;;;;;;3.65;2.47;;;;;24.00;102181.00;;;;5011524;28;20204;-76
2022/05/01 12:47:51;;;;;;;2.88;2.00;;;;;24.20;102181.00;;;;4995980;28;20213;-76
2022/05/01 12:50:29;;;;;;;4.45;2.40;;;;;24.10;102181.00;;;;5019873;28;20208;-76
2022/05/01 12:53:00;;;;;;;4.97;2.08;;;;;24.20;102181.00;;;;5013683;28;20197;-76
2022/05/01 12:55:33;;;;;;;2.30;2.10;;;;;24.20;102182.00;;;;5017737;28;20200;-75
2022/05/01 12:58:02;;;;;;;3.00;2.47;;;;;24.20;102179.00;;;;5019042;28;20200;-76